Time;durP1;ratioP1;P1;durP2;ratioP2;P2;SDS_P1;SDS_P2;PMS_P1;PMS_P2;Temp;Humidity;BMP_temperature;BMP_pressure;BME280_temperature;BME280_humidity;BME280_pressure;Samples;Min_cycle;Max_cycle;Signal;HPM_P1;HPM_P2
2022/12/07 00:01:34;;;;;;;4.23;1.13;;;27.60;63.50;;;;;;5070062;28;20466;-83
2022/12/07 00:04:06;;;;;;;2.88;1.20;;;27.60;63.20;;;;;;5052090;28;20893;-82
2022/12/07 00:06:37;;;;;;;3.28;1.20;;;27.60;62.80;;;;;;5070288;28;20455;-83
2022/12/07 00:09:06;;;;;;;5.43;1.20;;;27.50;62.30;;;;;;5070512;28;20382;-83
2022/12/07 00:11:33;;;;;;;4.50;1.00;;;27.20;62.30;;;;;;5071332;28;20406;-83
2022/12/07 00:14:03;;;;;;;4.53;1.30;;;27.10;62.80;;;;;;5069751;28;20770;-80
2022/12/07 00:16:32;;;;;;;4.85;1.35;;;26.90;62.30;;;;;;5069745;28;20378;-83
2022/12/07 00:18:59;;;;;;;3.03;1.17;;;26.80;64.20;;;;;;5069560;28;20382;-83
2022/12/07 00:21:29;;;;;;;2.60;1.20;;;26.70;63.40;;;;;;5069511;28;20738;-83
2022/12/07 00:23:57;;;;;;;4.80;1.30;;;26.70;64.10;;;;;;5069496;28;20373;-84
2022/12/07 00:26:30;;;;;;;6.80;1.25;;;26.70;64.90;;;;;;5069782;28;20861;-84
2022/12/07 00:28:59;;;;;;;3.55;1.15;;;26.80;63.80;;;;;;5069301;28;20424;-83
2022/12/07 00:31:29;;;;;;;5.22;1.23;;;26.90;65.00;;;;;;5069649;28;20501;-83
2022/12/07 00:33:57;;;;;;;4.20;1.17;;;27.20;63.20;;;;;;5069343;28;20373;-84
2022/12/07 00:36:25;;;;;;;3.80;1.15;;;27.40;62.80;;;;;;5069445;28;20385;-80
2022/12/07 00:38:53;;;;;;;3.00;1.08;;;27.60;63.00;;;;;;5051367;28;20381;-83
2022/12/07 00:41:22;;;;;;;4.00;1.13;;;27.70;60.70;;;;;;5068993;28;20870;-81
2022/12/07 00:43:50;;;;;;;2.28;1.00;;;27.90;60.80;;;;;;5068993;28;20404;-82
2022/12/07 00:46:19;;;;;;;3.22;1.23;;;28.10;60.30;;;;;;5069013;28;20389;-81
2022/12/07 00:48:46;;;;;;;3.10;1.27;;;28.30;60.00;;;;;;5069009;28;20395;-82
2022/12/07 00:51:15;;;;;;;5.07;1.08;;;28.60;59.00;;;;;;5068847;28;20386;-79
2022/12/07 00:53:42;;;;;;;4.47;1.20;;;28.90;56.50;;;;;;5068910;28;20363;-82
2022/12/07 00:56:14;;;;;;;3.60;1.20;;;28.60;57.70;;;;;;5068889;28;20404;-84
2022/12/07 00:58:41;;;;;;;2.55;1.13;;;28.50;56.80;;;;;;5068907;28;20458;-81
2022/12/07 01:01:10;;;;;;;2.80;1.02;;;28.70;55.80;;;;;;5068869;28;20401;-82
2022/12/07 01:03:38;;;;;;;3.83;1.05;;;28.80;55.40;;;;;;5068722;28;20374;-81
2022/12/07 01:06:05;;;;;;;3.90;1.00;;;28.90;55.60;;;;;;5068770;28;20398;-82
2022/12/07 01:08:32;;;;;;;3.40;1.13;;;28.80;54.80;;;;;;5068932;28;20405;-81
2022/12/07 01:11:06;;;;;;;4.47;1.10;;;28.70;54.40;;;;;;5069016;28;20406;-84
2022/12/07 01:13:34;;;;;;;3.50;1.17;;;28.60;54.60;;;;;;5068413;28;20406;-84
2022/12/07 01:16:04;;;;;;;4.40;1.20;;;28.60;55.60;;;;;;5068227;28;20374;-82
2022/12/07 01:21:52;;;;;;;4.53;1.20;;;29.00;56.00;;;;;;5068876;28;20972;-84
2022/12/07 01:24:19;;;;;;;4.18;1.25;;;28.90;56.00;;;;;;5068553;28;20952;-82
2022/12/07 01:26:49;;;;;;;5.00;1.25;;;28.90;57.70;;;;;;5050463;28;20793;-84
2022/12/07 01:29:16;;;;;;;6.78;1.20;;;29.10;56.90;;;;;;5068126;28;20822;-83
2022/12/07 01:31:43;;;;;;;3.43;1.20;;;29.00;56.40;;;;;;5050532;28;20912;-81
2022/12/07 01:34:10;;;;;;;6.95;1.40;;;29.10;56.80;;;;;;5068215;28;20362;-84
2022/12/07 01:36:37;;;;;;;6.82;1.30;;;29.40;57.20;;;;;;5069269;28;20413;-80
2022/12/07 01:39:06;;;;;;;6.75;1.20;;;29.60;56.50;;;;;;5068504;28;20945;-80
2022/12/07 01:41:36;;;;;;;4.05;1.10;;;29.70;55.40;;;;;;5067727;28;20917;-81
2022/12/07 01:44:29;;;;;;;2.97;1.10;;;29.60;55.60;;;;;;5068623;28;20467;-80
2022/12/07 01:47:02;;;;;;;7.05;1.13;;;29.50;54.80;;;;;;5059944;28;20382;-85
2022/12/07 01:49:48;;;;;;;3.13;1.20;;;29.30;55.00;;;;;;5068192;28;20390;-85
2022/12/07 01:52:30;;;;;;;3.55;1.00;;;29.10;54.60;;;;;;5069100;28;20382;-84
2022/12/07 01:55:07;;;;;;;2.65;1.00;;;29.10;54.20;;;;;;5068279;28;20399;-85
2022/12/07 01:57:39;;;;;;;4.20;0.90;;;29.00;53.50;;;;;;5068266;28;20378;-83
2022/12/07 02:00:08;;;;;;;3.72;1.10;;;28.90;53.40;;;;;;5068083;28;20436;-85
2022/12/07 02:02:41;;;;;;;2.08;0.95;;;28.80;53.50;;;;;;5068000;28;20457;-85
2022/12/07 02:05:08;;;;;;;4.25;1.00;;;28.80;53.90;;;;;;5068083;28;20385;-83
2022/12/07 02:07:38;;;;;;;3.78;1.10;;;29.00;53.50;;;;;;5067980;28;20406;-83
2022/12/07 02:10:20;;;;;;;3.70;1.02;;;29.20;52.10;;;;;;5049924;28;20409;-84
2022/12/07 02:12:53;;;;;;;2.13;0.90;;;29.30;51.50;;;;;;5068024;28;20385;-81
2022/12/07 02:15:24;;;;;;;3.42;0.82;;;29.40;51.40;;;;;;5067820;28;20370;-83
2022/12/07 02:18:04;;;;;;;2.40;0.80;;;29.30;50.20;;;;;;5068370;28;20369;-84
2022/12/07 02:20:37;;;;;;;2.65;0.80;;;29.20;50.30;;;;;;5068026;28;20368;-85
2022/12/07 02:23:19;;;;;;;4.10;0.98;;;29.00;49.60;;;;;;5067761;28;20386;-83
2022/12/07 02:26:08;;;;;;;3.13;0.70;;;28.90;49.90;;;;;;5067802;28;20380;-83
2022/12/07 02:28:36;;;;;;;5.40;0.80;;;28.80;49.20;;;;;;5068549;28;20354;-84
2022/12/07 02:31:15;;;;;;;2.20;0.80;;;28.70;48.80;;;;;;5068318;28;20393;-80
2022/12/07 02:33:52;;;;;;;5.57;0.90;;;28.60;48.70;;;;;;5068239;28;20377;-81
2022/12/07 02:36:27;;;;;;;5.00;0.80;;;28.50;47.90;;;;;;5068034;28;20379;-84
2022/12/07 02:39:13;;;;;;;3.40;0.90;;;28.30;47.50;;;;;;5067875;28;20802;-83
2022/12/07 02:41:57;;;;;;;3.55;0.90;;;28.10;47.40;;;;;;5067643;28;20427;-84
2022/12/07 02:44:27;;;;;;;2.83;0.70;;;28.00;47.10;;;;;;5068032;28;20398;-84
2022/12/07 02:47:07;;;;;;;3.50;0.80;;;27.90;46.60;;;;;;5067719;28;20449;-82
2022/12/07 02:49:36;;;;;;;1.58;0.60;;;27.80;45.40;;;;;;5067991;28;20408;-82
2022/12/07 02:52:03;;;;;;;2.05;0.70;;;27.80;45.10;;;;;;5067577;28;20411;-81
2022/12/07 02:54:30;;;;;;;1.77;0.63;;;27.70;44.10;;;;;;5070131;28;20370;-83
2022/12/07 02:57:05;;;;;;;5.95;0.88;;;27.80;43.40;;;;;;5071373;28;20370;-80
2022/12/07 02:59:47;;;;;;;3.30;0.68;;;27.70;43.40;;;;;;5071357;28;20523;-81
2022/12/07 03:02:37;;;;;;;2.20;0.60;;;27.60;43.50;;;;;;5070322;28;21557;-83
2022/12/07 03:05:22;;;;;;;3.70;0.80;;;27.50;42.70;;;;;;5071010;28;20382;-82
2022/12/07 03:08:27;;;;;;;3.13;0.73;;;27.50;44.10;;;;;;5071040;28;20381;-82
2022/12/07 03:11:05;;;;;;;3.63;0.70;;;27.60;44.70;;;;;;5071329;28;20474;-81
2022/12/07 03:13:39;;;;;;;3.93;0.60;;;27.70;45.30;;;;;;5071503;28;20844;-81
2022/12/07 03:16:30;;;;;;;2.40;0.63;;;27.70;45.20;;;;;;5070891;28;20376;-82
2022/12/07 03:19:09;;;;;;;2.50;0.80;;;27.60;45.30;;;;;;5055568;28;20742;-86
2022/12/07 03:21:54;;;;;;;3.20;0.70;;;27.60;44.40;;;;;;5071384;28;20397;-85
2022/12/07 03:24:26;;;;;;;2.08;0.70;;;27.60;40.50;;;;;;5071140;28;20397;-82
2022/12/07 03:27:03;;;;;;;1.63;0.52;;;27.60;40.20;;;;;;5070727;28;20362;-80
2022/12/07 03:29:38;;;;;;;1.05;0.57;;;27.50;40.30;;;;;;5052728;28;20397;-82
2022/12/07 03:32:23;;;;;;;3.42;0.70;;;27.40;39.30;;;;;;5070448;28;20414;-80
2022/12/07 03:35:08;;;;;;;2.60;0.60;;;27.30;39.60;;;;;;5070545;28;20367;-82
2022/12/07 03:37:40;;;;;;;3.70;0.70;;;27.30;39.30;;;;;;5070461;28;20458;-80
2022/12/07 03:40:45;;;;;;;2.25;0.60;;;27.30;39.50;;;;;;5070424;28;20372;-84
2022/12/07 03:43:12;;;;;;;3.45;0.63;;;27.30;39.30;;;;;;5070687;28;20367;-80
2022/12/07 03:45:42;;;;;;;5.93;0.70;;;27.30;39.00;;;;;;5070325;28;20397;-80
2022/12/07 03:48:17;;;;;;;6.53;0.80;;;27.30;39.20;;;;;;5071020;28;20378;-85
2022/12/07 03:51:13;;;;;;;5.50;0.70;;;27.30;37.90;;;;;;5070259;28;20799;-84
2022/12/07 03:54:24;;;;;;;2.70;0.70;;;27.20;37.40;;;;;;5068523;28;20382;-80
2022/12/07 03:56:56;;;;;;;4.22;0.65;;;27.00;36.80;;;;;;5070790;28;20710;-85
2022/12/07 03:59:24;;;;;;;3.10;0.80;;;26.90;37.50;;;;;;5069783;28;20401;-81
2022/12/07 04:01:56;;;;;;;2.75;0.75;;;26.70;38.20;;;;;;5069927;28;20867;-78
2022/12/07 04:04:25;;;;;;;5.37;0.80;;;26.70;38.20;;;;;;5069619;28;20383;-85
2022/12/07 04:06:52;;;;;;;2.78;0.60;;;26.60;37.90;;;;;;5070071;28;20362;-84
2022/12/07 04:09:19;;;;;;;2.58;0.52;;;26.60;38.40;;;;;;5069747;28;20719;-81
2022/12/07 04:11:47;;;;;;;3.65;0.50;;;26.50;37.60;;;;;;5069750;28;20909;-80
2022/12/07 04:14:20;;;;;;;1.70;0.70;;;26.50;36.40;;;;;;5069840;28;20398;-83
2022/12/07 04:16:56;;;;;;;1.27;0.60;;;26.50;37.80;;;;;;5069579;28;20386;-84
2022/12/07 04:19:29;;;;;;;1.85;0.73;;;26.50;38.80;;;;;;5069812;28;20394;-86
2022/12/07 04:21:57;;;;;;;2.97;0.60;;;26.50;38.80;;;;;;5069791;28;20410;-81
2022/12/07 04:24:24;;;;;;;2.88;0.70;;;26.50;39.50;;;;;;5069720;28;20409;-83
2022/12/07 04:26:51;;;;;;;2.25;0.70;;;26.50;39.90;;;;;;5069563;28;20389;-78
2022/12/07 04:29:20;;;;;;;2.75;0.70;;;26.50;40.10;;;;;;5069374;28;20409;-84
2022/12/07 04:31:47;;;;;;;2.20;0.60;;;26.40;40.80;;;;;;5069450;28;20377;-82
2022/12/07 04:34:15;;;;;;;1.63;0.63;;;26.40;40.70;;;;;;5069338;28;20458;-82
2022/12/07 04:36:42;;;;;;;2.10;0.60;;;26.40;41.00;;;;;;5069301;28;20371;-80
2022/12/07 04:39:22;;;;;;;2.63;0.75;;;26.40;41.20;;;;;;5069278;28;20897;-79
2022/12/07 04:41:49;;;;;;;2.88;0.70;;;26.30;42.00;;;;;;5069291;28;20444;-81
2022/12/07 04:44:17;;;;;;;1.90;0.60;;;26.30;42.80;;;;;;5069060;28;20385;-82
2022/12/07 04:46:44;;;;;;;1.58;0.65;;;26.30;42.40;;;;;;5069173;28;20793;-84
2022/12/07 04:49:13;;;;;;;1.75;0.70;;;26.30;42.80;;;;;;5051153;28;20406;-85
2022/12/07 04:51:40;;;;;;;2.70;0.70;;;26.30;43.20;;;;;;5069123;28;20382;-84
2022/12/07 04:54:07;;;;;;;4.10;0.70;;;26.30;43.00;;;;;;5068836;28;20366;-79
2022/12/07 04:56:35;;;;;;;2.20;0.70;;;26.30;42.90;;;;;;5068805;28;20411;-85
2022/12/07 04:59:03;;;;;;;2.50;0.60;;;26.30;43.00;;;;;;5068785;28;20413;-86
2022/12/07 05:04:51;;;;;;;2.72;0.70;;;26.20;42.00;;;;;;5069279;28;20384;-86
2022/12/07 05:07:18;;;;;;;2.38;0.50;;;26.20;42.60;;;;;;5068616;28;20370;-89
2022/12/07 05:09:45;;;;;;;2.22;0.60;;;26.00;42.90;;;;;;5068799;28;20396;-90
2022/12/07 05:12:12;;;;;;;1.65;0.75;;;26.00;43.00;;;;;;5050943;28;20379;-88
2022/12/07 05:14:42;;;;;;;2.47;0.60;;;25.90;41.30;;;;;;5069478;28;20445;-90
2022/12/07 05:17:11;;;;;;;3.40;0.70;;;25.90;42.60;;;;;;5068275;28;20861;-87
2022/12/07 05:19:38;;;;;;;1.50;0.60;;;25.80;42.10;;;;;;5068721;28;20862;-87
2022/12/07 05:22:05;;;;;;;3.40;0.70;;;25.80;41.20;;;;;;5069399;28;20379;-88
2022/12/07 05:24:32;;;;;;;2.20;0.70;;;25.80;42.20;;;;;;5069287;28;20366;-85
2022/12/07 05:26:59;;;;;;;3.28;0.70;;;25.70;42.50;;;;;;5051474;28;20385;-89
2022/12/07 05:29:26;;;;;;;2.38;0.70;;;25.70;43.10;;;;;;5068847;28;20472;-82
2022/12/07 05:31:52;;;;;;;1.50;0.70;;;25.70;43.60;;;;;;5068749;28;20374;-90
2022/12/07 05:37:41;;;;;;;2.72;0.80;;;25.60;44.30;;;;;;5068627;28;20357;-89
2022/12/07 05:40:09;;;;;;;4.07;1.10;;;25.50;45.00;;;;;;5068745;28;20469;-87
2022/12/07 05:42:37;;;;;;;3.08;1.40;;;25.40;45.30;;;;;;5068469;28;20449;-85
2022/12/07 05:45:04;;;;;;;3.03;1.30;;;25.30;46.00;;;;;;5068337;28;20393;-86
2022/12/07 05:47:31;;;;;;;2.95;1.05;;;25.20;46.20;;;;;;5068558;28;20377;-79
2022/12/07 05:49:59;;;;;;;2.03;0.90;;;25.10;46.20;;;;;;5052512;28;20766;-88
2022/12/07 05:52:26;;;;;;;3.80;0.93;;;25.10;47.10;;;;;;5069378;28;20841;-83
2022/12/07 05:54:53;;;;;;;1.23;0.70;;;25.20;47.00;;;;;;5069612;28;20734;-83
2022/12/07 05:57:20;;;;;;;2.30;0.70;;;25.20;47.70;;;;;;5069294;28;20374;-87
2022/12/07 05:59:47;;;;;;;3.35;0.90;;;25.20;48.20;;;;;;5068966;28;20391;-85
2022/12/07 06:02:16;;;;;;;1.17;0.73;;;25.30;48.80;;;;;;5051512;28;20796;-86
2022/12/07 06:04:47;;;;;;;3.80;0.80;;;25.20;49.20;;;;;;5069612;28;20373;-85
2022/12/07 06:07:16;;;;;;;2.40;0.80;;;25.10;49.80;;;;;;5069183;28;20377;-86
2022/12/07 06:09:43;;;;;;;2.30;0.70;;;25.10;50.80;;;;;;5069812;28;20401;-85
2022/12/07 06:14:58;;;;;;;1.83;0.60;;;25.00;52.00;;;;;;5069357;28;20765;-87
2022/12/07 06:17:25;;;;;;;2.30;0.80;;;24.80;52.80;;;;;;5068534;28;20761;-84
2022/12/07 06:19:52;;;;;;;1.40;0.60;;;24.70;53.50;;;;;;5070223;28;20380;-87
2022/12/07 06:22:20;;;;;;;1.48;0.68;;;24.70;54.30;;;;;;5051104;28;20734;-87
2022/12/07 06:24:47;;;;;;;1.23;0.55;;;24.60;54.80;;;;;;5069901;28;20370;-82
2022/12/07 06:27:14;;;;;;;1.00;0.60;;;24.50;55.00;;;;;;5052875;28;20390;-84
2022/12/07 06:29:41;;;;;;;1.77;0.60;;;24.50;55.60;;;;;;5054491;28;20398;-82
2022/12/07 06:32:09;;;;;;;3.17;0.80;;;24.50;55.90;;;;;;5072727;28;20362;-84
2022/12/07 06:34:36;;;;;;;2.35;0.70;;;24.60;56.40;;;;;;5072075;28;20854;-84
2022/12/07 06:37:03;;;;;;;2.83;0.77;;;24.60;56.90;;;;;;5072388;28;20440;-83
2022/12/07 06:39:31;;;;;;;1.40;0.60;;;24.50;57.60;;;;;;5072398;28;20370;-83
2022/12/07 06:41:58;;;;;;;1.50;0.65;;;24.40;58.30;;;;;;5073528;28;20431;-86
2022/12/07 06:44:25;;;;;;;0.93;0.60;;;24.30;59.00;;;;;;5072570;28;20382;-87
2022/12/07 06:46:53;;;;;;;1.25;0.55;;;24.20;59.90;;;;;;5072764;28;20734;-87
2022/12/07 06:49:20;;;;;;;0.90;0.50;;;24.10;60.00;;;;;;5072892;28;20914;-86
2022/12/07 06:51:47;;;;;;;1.50;0.70;;;24.00;60.10;;;;;;5072910;28;20398;-85
2022/12/07 06:54:15;;;;;;;1.67;0.60;;;24.00;60.60;;;;;;5072609;28;20722;-87
2022/12/07 06:56:42;;;;;;;1.73;0.60;;;24.00;60.60;;;;;;5072151;28;20370;-87
2022/12/07 06:59:10;;;;;;;3.13;0.50;;;24.00;60.90;;;;;;5072672;28;20436;-82
2022/12/07 07:01:37;;;;;;;1.90;0.65;;;24.00;61.00;;;;;;5072316;28;20389;-84
2022/12/07 07:04:05;;;;;;;1.15;0.60;;;23.90;61.30;;;;;;5071837;28;20854;-86
2022/12/07 07:06:32;;;;;;;3.10;0.67;;;23.90;61.40;;;;;;5071156;28;20398;-85
2022/12/07 07:08:59;;;;;;;2.33;0.75;;;23.80;61.40;;;;;;5071122;28;20370;-81
2022/12/07 07:11:26;;;;;;;2.00;0.60;;;23.80;61.50;;;;;;5071215;28;20853;-80
2022/12/07 07:13:56;;;;;;;0.85;0.60;;;23.80;61.70;;;;;;5070980;28;20449;-80
2022/12/07 07:16:24;;;;;;;1.65;0.50;;;23.80;62.10;;;;;;5071114;28;20385;-85
2022/12/07 07:18:51;;;;;;;1.45;0.68;;;23.80;62.60;;;;;;5071001;28;20370;-83
2022/12/07 07:21:18;;;;;;;2.22;0.70;;;23.80;62.10;;;;;;5071716;28;20781;-80
2022/12/07 07:23:45;;;;;;;1.13;0.60;;;23.70;62.30;;;;;;5071352;28;20430;-81
2022/12/07 07:26:12;;;;;;;1.15;0.63;;;23.70;62.20;;;;;;5071212;28;20385;-85
2022/12/07 07:28:39;;;;;;;4.20;0.80;;;23.60;62.60;;;;;;5071021;28;20382;-81
2022/12/07 07:31:06;;;;;;;1.45;0.50;;;23.60;62.70;;;;;;5070778;28;20504;-84
2022/12/07 07:33:33;;;;;;;2.80;0.73;;;23.60;62.90;;;;;;5070816;28;20862;-83
2022/12/07 07:36:00;;;;;;;1.10;0.52;;;23.60;63.30;;;;;;5070699;28;20378;-80
2022/12/07 07:38:27;;;;;;;1.13;0.70;;;23.50;63.20;;;;;;5070354;28;20398;-84
2022/12/07 07:40:55;;;;;;;1.20;0.60;;;23.60;63.50;;;;;;5070221;28;20378;-81
2022/12/07 07:43:22;;;;;;;1.92;0.80;;;23.50;63.30;;;;;;5070780;28;20409;-83
2022/12/07 07:45:49;;;;;;;0.90;0.70;;;23.50;63.70;;;;;;5070646;28;20402;-87
2022/12/07 07:48:16;;;;;;;3.33;1.00;;;23.50;63.70;;;;;;5070565;28;20397;-84
2022/12/07 07:50:43;;;;;;;1.38;0.77;;;23.40;64.20;;;;;;5070119;28;20402;-86
2022/12/07 07:53:10;;;;;;;1.40;0.63;;;23.40;64.30;;;;;;5070370;28;20370;-86
2022/12/07 07:55:37;;;;;;;0.82;0.70;;;23.30;64.70;;;;;;5070244;28;20402;-86
2022/12/07 07:58:04;;;;;;;1.10;0.63;;;23.30;65.50;;;;;;5070207;28;20367;-87
2022/12/07 08:00:31;;;;;;;3.70;0.70;;;23.30;65.00;;;;;;5070034;28;20510;-84
2022/12/07 08:02:59;;;;;;;1.80;0.75;;;23.20;65.20;;;;;;5070369;28;20453;-84
2022/12/07 08:05:26;;;;;;;2.05;0.70;;;23.20;65.40;;;;;;5053169;28;20388;-81
2022/12/07 08:07:53;;;;;;;1.83;0.60;;;23.20;65.60;;;;;;5073597;28;20393;-86
2022/12/07 08:10:20;;;;;;;3.65;0.77;;;23.20;65.80;;;;;;5078411;28;20468;-82
2022/12/07 08:15:32;;;;;;;1.98;0.60;;;23.10;66.10;;;;;;5070508;28;20865;-87
2022/12/07 08:18:00;;;;;;;2.70;0.60;;;23.30;66.40;;;;;;5070294;28;20444;-87
2022/12/07 08:20:27;;;;;;;2.88;0.80;;;23.10;66.30;;;;;;5070276;28;20876;-91
2022/12/07 08:22:54;;;;;;;2.13;0.80;;;23.00;66.40;;;;;;5070235;28;20500;-90
2022/12/07 08:25:24;;;;;;;0.70;0.50;;;23.10;66.60;;;;;;5070404;28;20429;-89
2022/12/07 08:27:52;;;;;;;1.80;0.60;;;23.00;66.60;;;;;;5070191;28;20380;-88
2022/12/07 08:30:20;;;;;;;1.73;0.70;;;23.00;66.60;;;;;;5069689;28;20409;-91
2022/12/07 08:32:48;;;;;;;1.73;0.60;;;23.00;66.90;;;;;;5069781;28;20382;-93
2022/12/07 08:35:15;;;;;;;1.00;0.50;;;22.90;67.10;;;;;;5070961;28;20465;-87
2022/12/07 08:37:42;;;;;;;1.90;0.60;;;23.00;67.20;;;;;;5071618;28;20457;-89
2022/12/07 08:40:14;;;;;;;0.70;0.60;;;22.90;67.40;;;;;;5069998;28;20458;-91
2022/12/07 08:42:44;;;;;;;2.90;0.85;;;22.90;67.50;;;;;;5069852;28;20369;-84
2022/12/07 08:45:13;;;;;;;1.40;0.70;;;22.80;67.60;;;;;;5069784;28;20457;-88
2022/12/07 08:48:04;;;;;;;2.22;0.98;;;22.80;67.60;;;;;;5070008;28;20885;-81
2022/12/07 08:50:34;;;;;;;2.80;0.88;;;22.80;67.90;;;;;;5070474;28;20449;-87
2022/12/07 08:53:03;;;;;;;2.88;0.90;;;22.90;68.10;;;;;;5070592;28;20376;-91
2022/12/07 08:55:30;;;;;;;0.98;0.70;;;22.80;68.10;;;;;;5070727;28;20408;-92
2022/12/07 08:57:59;;;;;;;1.25;0.80;;;22.80;68.50;;;;;;5071230;28;20416;-88
2022/12/07 09:00:26;;;;;;;1.95;0.80;;;22.70;68.60;;;;;;5074737;28;20417;-82
2022/12/07 09:02:54;;;;;;;2.45;0.90;;;22.70;68.70;;;;;;5070672;28;20375;-82
2022/12/07 09:05:22;;;;;;;1.70;1.00;;;22.60;69.00;;;;;;5069229;28;20397;-85
2022/12/07 09:07:52;;;;;;;2.38;0.90;;;22.50;69.20;;;;;;5069231;28;20420;-86
2022/12/07 09:10:19;;;;;;;0.80;0.77;;;22.50;69.20;;;;;;5069431;28;20436;-88
2022/12/07 09:12:46;;;;;;;2.10;0.97;;;22.50;69.30;;;;;;5069453;28;20370;-89
2022/12/07 09:15:13;;;;;;;2.47;0.90;;;22.50;69.50;;;;;;5069671;28;20402;-85
2022/12/07 09:17:40;;;;;;;2.00;1.00;;;22.50;69.90;;;;;;5069953;28;20461;-90
2022/12/07 09:20:07;;;;;;;1.42;0.88;;;22.40;70.10;;;;;;5069444;28;20488;-84
2022/12/07 09:22:34;;;;;;;1.20;0.80;;;22.30;70.40;;;;;;5069640;28;20394;-81
2022/12/07 09:25:02;;;;;;;1.85;0.90;;;22.30;70.80;;;;;;5069181;28;20374;-87
2022/12/07 09:27:30;;;;;;;0.97;0.87;;;22.20;70.50;;;;;;5070879;28;20435;-88
2022/12/07 09:29:57;;;;;;;2.00;0.90;;;22.10;71.40;;;;;;5069350;28;20791;-90
2022/12/07 09:32:24;;;;;;;3.72;0.90;;;22.00;71.90;;;;;;5069487;28;20386;-81
2022/12/07 09:34:51;;;;;;;4.43;1.10;;;21.90;71.80;;;;;;5069090;28;20369;-86
2022/12/07 09:37:38;;;;;;;4.18;0.90;;;21.90;71.90;;;;;;5069471;28;20862;-81
2022/12/07 09:40:06;;;;;;;3.97;1.15;;;21.90;72.50;;;;;;5054372;28;20405;-81
2022/12/07 09:42:55;;;;;;;3.47;1.00;;;21.80;73.00;;;;;;5072766;28;20471;-84
2022/12/07 09:45:33;;;;;;;3.97;1.13;;;21.80;73.30;;;;;;5071910;28;20369;-81
2022/12/07 09:48:00;;;;;;;2.60;1.10;;;21.80;73.70;;;;;;5072296;28;20934;-86
2022/12/07 09:50:28;;;;;;;3.30;0.93;;;21.80;73.70;;;;;;5072810;28;20451;-81
2022/12/07 09:53:13;;;;;;;3.35;1.00;;;21.80;73.70;;;;;;5072556;28;20416;-83
2022/12/07 09:55:43;;;;;;;2.60;0.90;;;21.80;73.90;;;;;;5071909;28;20440;-84
2022/12/07 09:58:25;;;;;;;2.33;1.05;;;21.70;73.70;;;;;;5069577;28;20449;-79
2022/12/07 10:00:59;;;;;;;2.47;1.00;;;21.70;74.40;;;;;;5068715;28;20881;-82
2022/12/07 10:03:28;;;;;;;1.98;1.27;;;21.60;74.60;;;;;;5071122;28;20420;-81
2022/12/07 10:05:56;;;;;;;1.80;1.20;;;21.60;74.80;;;;;;5072868;28;20370;-85
2022/12/07 10:08:25;;;;;;;2.22;1.17;;;21.60;75.60;;;;;;5072954;28;20850;-82
2022/12/07 10:10:56;;;;;;;2.28;1.30;;;21.60;75.10;;;;;;5072727;28;20922;-83
2022/12/07 10:13:36;;;;;;;4.22;1.20;;;21.60;75.50;;;;;;5073403;28;20432;-82
2022/12/07 10:16:07;;;;;;;1.55;1.00;;;21.60;75.70;;;;;;5076408;28;20431;-81
2022/12/07 10:18:43;;;;;;;2.63;1.10;;;21.60;75.80;;;;;;5074369;28;20868;-84
2022/12/07 10:21:20;;;;;;;3.17;1.20;;;21.60;75.70;;;;;;5077215;28;20401;-79
2022/12/07 10:24:16;;;;;;;1.45;1.02;;;21.60;75.20;;;;;;5076006;28;20854;-81
2022/12/07 10:26:53;;;;;;;1.33;0.73;;;21.70;75.00;;;;;;5077832;28;20374;-80
2022/12/07 10:29:30;;;;;;;1.73;0.90;;;21.70;74.40;;;;;;5077251;28;20372;-81
2022/12/07 10:32:17;;;;;;;1.02;0.85;;;21.80;74.50;;;;;;5077542;28;20441;-83
2022/12/07 10:34:44;;;;;;;2.13;1.10;;;21.70;74.80;;;;;;5073042;28;20369;-82
2022/12/07 10:37:19;;;;;;;1.90;0.97;;;21.70;74.90;;;;;;5074058;28;20452;-81
2022/12/07 10:39:52;;;;;;;4.72;1.13;;;21.60;75.10;;;;;;5074673;28;20371;-82
2022/12/07 10:42:27;;;;;;;2.40;1.35;;;21.50;75.70;;;;;;5075428;28;20381;-81
2022/12/07 10:45:17;;;;;;;1.65;1.17;;;21.50;76.30;;;;;;5075279;28;20699;-81
2022/12/07 10:47:47;;;;;;;1.97;1.20;;;21.40;76.60;;;;;;5074854;28;20377;-83
2022/12/07 10:50:44;;;;;;;2.10;1.23;;;21.30;77.00;;;;;;5073664;28;20394;-83
2022/12/07 10:53:31;;;;;;;2.20;1.20;;;21.20;77.60;;;;;;5073333;28;20390;-80
2022/12/07 10:56:48;;;;;;;1.73;1.00;;;21.20;78.30;;;;;;5054028;28;20897;-82
2022/12/07 10:59:51;;;;;;;2.55;0.90;;;21.10;78.50;;;;;;4991261;28;20580;-82
2022/12/07 11:02:33;;;;;;;1.42;0.73;;;21.10;78.20;;;;;;4991389;28;20389;-84
2022/12/07 11:05:19;;;;;;;1.00;0.70;;;21.10;78.30;;;;;;4989921;28;20389;-85
2022/12/07 11:08:14;;;;;;;1.13;0.75;;;21.10;77.80;;;;;;4989856;28;20939;-88
2022/12/07 11:10:59;;;;;;;1.90;0.73;;;21.10;77.70;;;;;;4989826;28;20432;-81
2022/12/07 11:13:31;;;;;;;0.70;0.70;;;21.00;77.90;;;;;;4989626;28;20424;-84
2022/12/07 11:16:05;;;;;;;2.00;0.90;;;21.00;78.00;;;;;;4989597;28;20475;-81
2022/12/07 11:19:16;;;;;;;1.48;0.80;;;21.00;78.10;;;;;;4990248;28;20769;-85
2022/12/07 11:22:04;;;;;;;3.25;0.75;;;20.90;78.20;;;;;;4986109;28;20408;-83
2022/12/07 11:24:49;;;;;;;0.98;0.73;;;21.00;78.50;;;;;;4989993;28;20396;-81
2022/12/07 11:31:08;;;;;;;0.73;0.70;;;20.90;78.40;;;;;;4989460;28;20984;-83
2022/12/07 11:34:28;;;;;;;1.13;0.70;;;21.00;78.40;;;;;;4998212;28;20384;-81
2022/12/07 11:36:56;;;;;;;1.65;0.95;;;21.00;78.30;;;;;;4989197;28;21214;-85
2022/12/07 11:39:33;;;;;;;1.25;0.80;;;21.00;78.00;;;;;;4989271;28;20390;-81
2022/12/07 11:42:34;;;;;;;1.73;0.90;;;21.00;77.60;;;;;;4990001;28;20385;-82
2022/12/07 11:45:26;;;;;;;2.67;2.00;;;21.00;77.30;;;;;;4989181;28;20372;-83
2022/12/07 11:47:55;;;;;;;1.80;1.20;;;21.00;77.40;;;;;;4989332;28;20389;-83
2022/12/07 11:50:38;;;;;;;1.92;1.02;;;20.90;76.90;;;;;;4989023;28;20408;-84
2022/12/07 11:53:23;;;;;;;1.27;0.90;;;20.90;77.30;;;;;;4989025;28;20430;-85
2022/12/07 11:56:11;;;;;;;1.90;0.88;;;20.90;77.40;;;;;;4989090;28;20904;-81
2022/12/07 11:59:12;;;;;;;1.53;0.77;;;20.80;77.80;;;;;;4989594;28;20435;-80
2022/12/07 12:01:39;;;;;;;0.97;0.77;;;20.70;78.00;;;;;;4989220;28;20908;-84
2022/12/07 12:04:12;;;;;;;1.75;0.60;;;20.70;78.00;;;;;;4988845;28;20381;-82
2022/12/07 12:06:43;;;;;;;2.00;0.80;;;20.60;78.10;;;;;;4978766;28;20897;-81
2022/12/07 12:09:32;;;;;;;1.50;0.80;;;20.60;78.70;;;;;;5070179;28;20398;-82
2022/12/07 12:12:33;;;;;;;4.95;1.17;;;20.60;78.70;;;;;;5070683;28;20439;-80
2022/12/07 12:15:13;;;;;;;1.92;0.90;;;20.50;78.90;;;;;;5070281;28;20393;-85
2022/12/07 12:18:02;;;;;;;1.60;0.70;;;20.50;79.20;;;;;;5070460;28;20361;-81
2022/12/07 12:20:51;;;;;;;1.63;0.82;;;20.30;79.90;;;;;;5051710;28;20393;-81
2022/12/07 12:23:25;;;;;;;0.90;0.80;;;20.30;80.30;;;;;;5069641;28;20378;-80
2022/12/07 12:26:00;;;;;;;1.40;0.95;;;20.20;80.90;;;;;;5051526;28;20382;-88
2022/12/07 12:28:39;;;;;;;1.40;1.07;;;20.10;81.60;;;;;;5069836;28;20380;-83
2022/12/07 12:31:29;;;;;;;2.30;1.20;;;20.00;81.90;;;;;;5069462;28;20390;-80
2022/12/07 12:33:58;;;;;;;1.80;1.20;;;20.00;82.00;;;;;;5069921;28;20453;-81
2022/12/07 12:36:45;;;;;;;2.50;1.15;;;19.90;82.30;;;;;;5069438;28;20440;-88
2022/12/07 12:39:18;;;;;;;3.55;1.13;;;19.90;81.90;;;;;;5069847;28;20366;-82
2022/12/07 12:44:15;;;;;;;1.88;0.82;;;19.90;82.90;;;;;;5069226;28;20781;-82
2022/12/07 12:47:20;;;;;;;2.40;0.80;;;19.90;82.90;;;;;;5069266;28;20916;-82
2022/12/07 12:50:13;;;;;;;1.63;0.80;;;19.90;83.20;;;;;;5072972;28;20399;-81
2022/12/07 12:52:39;;;;;;;2.33;0.90;;;19.90;83.10;;;;;;5070829;28;20412;-79
2022/12/07 12:55:09;;;;;;;1.73;0.77;;;19.90;83.20;;;;;;5069279;28;20394;-80
2022/12/07 12:57:37;;;;;;;1.58;0.60;;;19.90;82.90;;;;;;5069481;28;20393;-79
2022/12/07 13:00:18;;;;;;;1.27;0.60;;;20.10;82.80;;;;;;5069025;28;20398;-81
2022/12/07 13:02:58;;;;;;;1.63;0.70;;;20.10;82.40;;;;;;5069487;28;20373;-79
2022/12/07 13:05:31;;;;;;;1.00;0.60;;;20.20;82.80;;;;;;5068788;28;20877;-82
2022/12/07 13:08:02;;;;;;;1.17;0.60;;;20.30;82.90;;;;;;5068900;28;20431;-80
2022/12/07 13:10:29;;;;;;;2.13;0.60;;;20.30;83.00;;;;;;5068615;28;20398;-80
2022/12/07 13:12:58;;;;;;;1.90;0.60;;;20.40;82.90;;;;;;5069088;28;20366;-80
2022/12/07 13:15:48;;;;;;;1.02;0.60;;;20.40;82.80;;;;;;5068893;28;20362;-85
2022/12/07 13:18:31;;;;;;;1.50;0.70;;;20.50;82.80;;;;;;5068781;28;20386;-81
2022/12/07 13:20:59;;;;;;;2.20;0.70;;;20.60;83.00;;;;;;5068552;28;20453;-82
2022/12/07 13:23:39;;;;;;;1.08;0.70;;;20.60;82.90;;;;;;5068985;28;20854;-79
2022/12/07 13:26:20;;;;;;;1.35;0.60;;;20.50;83.10;;;;;;5068718;28;20381;-80
2022/12/07 13:29:06;;;;;;;0.98;0.65;;;20.40;83.60;;;;;;5050739;28;20381;-82
2022/12/07 13:31:40;;;;;;;1.08;0.60;;;20.40;83.90;;;;;;5068603;28;20401;-80
2022/12/07 13:34:36;;;;;;;1.70;0.60;;;20.40;84.00;;;;;;5069110;28;20361;-83
2022/12/07 13:37:13;;;;;;;1.30;0.60;;;20.30;84.30;;;;;;5049924;28;20390;-83
2022/12/07 13:39:58;;;;;;;1.58;0.70;;;20.20;84.90;;;;;;5050463;28;20738;-79
2022/12/07 13:42:33;;;;;;;1.57;0.60;;;20.10;85.10;;;;;;5051330;28;20902;-87